Back to Top

Language: 

My Weather Underground Personal Weather Station Historical Data with Graphs...

Delerius Weather Station Historical Data
Daily Summary for January 30, 2018 Units:  English    Metric   Both
« Previous Day
Next Day »
Daily Weekly Monthly Yearly Custom
  High: Low: Average:
Temperature: 46.0 °F 38.8 °F 41.3 °F
Dew Point: 38.2 °F 34.5 °F 36.2 °F
Humidity: 93 % 71 % 82 %
Wind Speed: 12.0 mph 0.0 mph 5.7 mph
Wind Gust: 21.0 mph - -
Wind:- - WSW
Pressure: 30.41 in 29.76 in -
Precipitation: 0.00 in    
Historical Graphs
 
 
Tabular Data for January 30, 2018
Time Temperature Dew Point Pressure Wind Wind Speed Wind Gust Humidity Rainfall Rate (Hourly) solar Conditions
00:01 39.2 °F 35.7 °F 30.40 in WSW 2.0 mph 4.0 mph 87 % 0.00 in 0 W/m2
00:06 39.2 °F 35.7 °F 30.40 in WSW 1.0 mph 4.0 mph 87 % 0.00 in 0 W/m2
00:11 39.4 °F 35.8 °F 30.40 in West 3.0 mph 5.0 mph 87 % 0.00 in 0 W/m2
00:16 39.4 °F 35.8 °F 30.40 in West 4.0 mph 6.0 mph 87 % 0.00 in 0 W/m2
00:21 39.6 °F 36.0 °F 30.41 in West 5.0 mph 8.0 mph 87 % 0.00 in 0 W/m2
00:26 39.6 °F 36.0 °F 30.40 in WNW 7.0 mph 10.0 mph 87 % 0.00 in 0 W/m2
00:31 39.7 °F 36.2 °F 30.40 in WNW 4.0 mph 9.0 mph 87 % 0.00 in 0 W/m2
00:36 39.7 °F 36.2 °F 30.40 in NW 3.0 mph 7.0 mph 87 % 0.00 in 0 W/m2
00:41 39.7 °F 36.2 °F 30.40 in WNW 3.0 mph 5.0 mph 87 % 0.00 in 0 W/m2
00:46 39.7 °F 36.2 °F 30.41 in West 4.0 mph 9.0 mph 87 % 0.00 in 0 W/m2
00:51 39.7 °F 36.2 °F 30.41 in WNW 4.0 mph 7.0 mph 87 % 0.00 in 0 W/m2
00:56 39.7 °F 36.2 °F 30.40 in WNW 4.0 mph 7.0 mph 87 % 0.00 in 0 W/m2
01:01 39.7 °F 36.2 °F 30.41 in West 6.0 mph 10.0 mph 87 % 0.00 in 0 W/m2
01:06 39.7 °F 36.2 °F 30.40 in West 5.0 mph 11.0 mph 87 % 0.00 in 0 W/m2
01:11 39.7 °F 36.2 °F 30.40 in WNW 7.0 mph 13.0 mph 87 % 0.00 in 0 W/m2
01:16 39.7 °F 36.2 °F 30.40 in West 8.0 mph 11.0 mph 87 % 0.00 in 0 W/m2
01:18 39.7 °F 36.2 °F 30.40 in WNW 9.0 mph 12.0 mph 87 % 0.00 in 0 W/m2
01:23 39.7 °F 36.2 °F 30.40 in WNW 7.0 mph 11.0 mph 87 % 0.00 in 0 W/m2
01:28 39.7 °F 36.2 °F 30.40 in WNW 8.0 mph 12.0 mph 87 % 0.00 in 0 W/m2
01:33 39.7 °F 36.2 °F 30.40 in West 7.0 mph 10.0 mph 87 % 0.00 in 0 W/m2
01:38 39.7 °F 36.2 °F 30.40 in West 11.0 mph 18.0 mph 87 % 0.00 in 0 W/m2
01:43 39.7 °F 36.2 °F 30.40 in WNW 11.0 mph 18.0 mph 87 % 0.00 in 0 W/m2
01:48 39.7 °F 36.2 °F 30.40 in WNW 9.0 mph 18.0 mph 87 % 0.00 in 0 W/m2
01:53 39.7 °F 36.2 °F 30.40 in West 8.0 mph 12.0 mph 87 % 0.00 in 0 W/m2
01:58 39.7 °F 36.5 °F 30.39 in West 9.0 mph 13.0 mph 88 % 0.00 in 0 W/m2
02:03 39.7 °F 36.5 °F 30.39 in West 7.0 mph 13.0 mph 88 % 0.00 in 0 W/m2
02:08 39.7 °F 36.5 °F 30.39 in West 7.0 mph 10.0 mph 88 % 0.00 in 0 W/m2
02:13 39.7 °F 36.5 °F 30.38 in West 6.0 mph 9.0 mph 88 % 0.00 in 0 W/m2
02:19 39.7 °F 36.5 °F 30.38 in WNW 7.0 mph 11.0 mph 88 % 0.00 in 0 W/m2
02:24 39.7 °F 36.5 °F 30.38 in WNW 6.0 mph 12.0 mph 88 % 0.00 in 0 W/m2
02:29 39.7 °F 36.5 °F 30.38 in WNW 10.0 mph 15.0 mph 88 % 0.00 in 0 W/m2
02:34 39.7 °F 36.5 °F 30.37 in WNW 9.0 mph 14.0 mph 88 % 0.00 in 0 W/m2
02:39 39.7 °F 36.2 °F 30.38 in West 10.0 mph 14.0 mph 87 % 0.00 in 0 W/m2
02:44 39.9 °F 36.4 °F 30.37 in West 11.0 mph 15.0 mph 87 % 0.00 in 0 W/m2
02:49 39.7 °F 36.2 °F 30.37 in WNW 10.0 mph 20.0 mph 87 % 0.00 in 0 W/m2
02:54 39.7 °F 36.5 °F 30.37 in WNW 11.0 mph 18.0 mph 88 % 0.00 in 0 W/m2
02:59 39.9 °F 36.7 °F 30.37 in WNW 10.0 mph 16.0 mph 88 % 0.00 in 0 W/m2
03:04 39.9 °F 36.7 °F 30.37 in West 12.0 mph 20.0 mph 88 % 0.00 in 0 W/m2
03:09 40.1 °F 36.8 °F 30.37 in WNW 10.0 mph 18.0 mph 88 % 0.00 in 0 W/m2
03:14 40.3 °F 36.7 °F 30.37 in West 11.0 mph 15.0 mph 87 % 0.00 in 0 W/m2
03:19 40.5 °F 36.9 °F 30.37 in West 8.0 mph 12.0 mph 87 % 0.00 in 0 W/m2
03:24 40.3 °F 36.7 °F 30.37 in WSW 8.0 mph 11.0 mph 87 % 0.00 in 0 W/m2
03:29 40.1 °F 36.5 °F 30.36 in WSW 8.0 mph 11.0 mph 87 % 0.00 in 0 W/m2
03:34 39.9 °F 36.4 °F 30.36 in WSW 7.0 mph 10.0 mph 87 % 0.00 in 0 W/m2
03:39 39.7 °F 36.5 °F 30.36 in WSW 5.0 mph 8.0 mph 88 % 0.00 in 0 W/m2
03:44 39.7 °F 36.5 °F 30.36 in SW 6.0 mph 10.0 mph 88 % 0.00 in 0 W/m2
03:49 39.7 °F 36.5 °F 30.36 in WSW 4.0 mph 8.0 mph 88 % 0.00 in 0 W/m2
03:54 39.7 °F 36.5 °F 30.36 in WNW 1.0 mph 4.0 mph 88 % 0.00 in 0 W/m2
03:59 39.9 °F 36.7 °F 30.36 in West 10.0 mph 19.0 mph 88 % 0.00 in 0 W/m2
04:04 39.9 °F 36.7 °F 30.37 in West 5.0 mph 9.0 mph 88 % 0.00 in 0 W/m2
04:09 40.1 °F 36.8 °F 30.36 in West 6.0 mph 9.0 mph 88 % 0.00 in 0 W/m2
04:14 40.1 °F 36.8 °F 30.36 in West 7.0 mph 13.0 mph 88 % 0.00 in 0 W/m2
04:19 40.1 °F 36.8 °F 30.37 in West 6.0 mph 11.0 mph 88 % 0.00 in 0 W/m2
04:24 40.1 °F 36.8 °F 30.36 in WNW 5.0 mph 10.0 mph 88 % 0.00 in 0 W/m2
04:29 39.9 °F 36.7 °F 30.36 in West 4.0 mph 7.0 mph 88 % 0.00 in 0 W/m2
04:34 39.9 °F 36.7 °F 30.36 in West 1.0 mph 5.0 mph 88 % 0.00 in 0 W/m2
04:39 39.7 °F 36.5 °F 30.36 in West 4.0 mph 7.0 mph 88 % 0.00 in 0 W/m2
04:44 39.6 °F 36.3 °F 30.36 in West 7.0 mph 10.0 mph 88 % 0.00 in 0 W/m2
04:49 39.6 °F 36.3 °F 30.36 in West 2.0 mph 6.0 mph 88 % 0.00 in 0 W/m2
04:54 39.4 °F 36.1 °F 30.36 in West 2.0 mph 7.0 mph 88 % 0.00 in 0 W/m2
04:59 39.4 °F 36.1 °F 30.36 in Calm   3.0 mph 88 % 0.00 in 0 W/m2
05:04 39.2 °F 36.2 °F 30.36 in WSW 1.0 mph 6.0 mph 89 % 0.00 in 0 W/m2
05:09 39.2 °F 36.2 °F 30.36 in WSW 6.0 mph 10.0 mph 89 % 0.00 in 0 W/m2
05:14 39.2 °F 35.9 °F 30.36 in West 5.0 mph 11.0 mph 88 % 0.00 in 0 W/m2
05:19 39.2 °F 35.9 °F 30.35 in WSW 5.0 mph 8.0 mph 88 % 0.00 in 0 W/m2
05:24 39.2 °F 35.9 °F 30.35 in West 3.0 mph 7.0 mph 88 % 0.00 in 0 W/m2
05:29 39.0 °F 35.8 °F 30.35 in WSW 5.0 mph 8.0 mph 88 % 0.00 in 0 W/m2
05:34 39.0 °F 35.8 °F 30.35 in WNW 3.0 mph 6.0 mph 88 % 0.00 in 0 W/m2
05:40 39.0 °F 35.8 °F 30.35 in West 4.0 mph 9.0 mph 88 % 0.00 in 0 W/m2
05:45 39.0 °F 35.8 °F 30.35 in WNW 1.0 mph 6.0 mph 88 % 0.00 in 0 W/m2
05:50 39.0 °F 35.8 °F 30.35 in SW 1.0 mph 4.0 mph 88 % 0.00 in 0 W/m2
05:55 39.0 °F 35.8 °F 30.35 in Calm     88 % 0.00 in 0 W/m2
06:00 39.0 °F 35.8 °F 30.35 in Calm     88 % 0.00 in 0 W/m2
06:05 38.8 °F 35.6 °F 30.35 in NW 1.0 mph 8.0 mph 88 % 0.00 in 0 W/m2
06:10 39.0 °F 35.8 °F 30.35 in WSW 6.0 mph 9.0 mph 88 % 0.00 in 0 W/m2
06:15 39.4 °F 36.1 °F 30.34 in West 5.0 mph 8.0 mph 88 % 0.00 in 0 W/m2
06:20 39.4 °F 36.1 °F 30.35 in WSW 5.0 mph 9.0 mph 88 % 0.00 in 0 W/m2
06:25 39.4 °F 35.8 °F 30.34 in West 3.0 mph 8.0 mph 87 % 0.00 in 0 W/m2
06:30 39.4 °F 35.8 °F 30.35 in West 4.0 mph 8.0 mph 87 % 0.00 in 0 W/m2
06:35 39.4 °F 35.8 °F 30.35 in WSW 2.0 mph 5.0 mph 87 % 0.00 in 0 W/m2
06:40 39.4 °F 35.8 °F 30.35 in West 4.0 mph 8.0 mph 87 % 0.00 in 0 W/m2
06:45 39.4 °F 35.8 °F 30.35 in West 6.0 mph 8.0 mph 87 % 0.00 in 0 W/m2
06:50 39.4 °F 35.8 °F 30.34 in WNW 9.0 mph 13.0 mph 87 % 0.00 in 0 W/m2
06:55 39.6 °F 36.0 °F 30.34 in West 9.0 mph 13.0 mph 87 % 0.00 in 0 W/m2
07:00 39.7 °F 35.9 °F 30.33 in West 10.0 mph 13.0 mph 86 % 0.00 in 0 W/m2
07:05 39.9 °F 36.1 °F 30.34 in West 9.0 mph 13.0 mph 86 % 0.00 in 0 W/m2
07:10 39.7 °F 35.9 °F 30.33 in WNW 9.0 mph 13.0 mph 86 % 0.00 in 0 W/m2
07:15 39.7 °F 35.9 °F 30.33 in West 6.0 mph 9.0 mph 86 % 0.00 in 0 W/m2
07:20 39.7 °F 35.9 °F 30.33 in WNW 5.0 mph 8.0 mph 86 % 0.00 in 0 W/m2
07:25 39.6 °F 35.7 °F 30.34 in WNW 3.0 mph 7.0 mph 86 % 0.00 in 0 W/m2
07:30 39.4 °F 35.5 °F 30.34 in WNW 2.0 mph 4.0 mph 86 % 0.00 in 0 W/m2
07:35 39.2 °F 35.4 °F 30.34 in NW 3.0 mph 5.0 mph 86 % 0.00 in 0 W/m2
07:40 39.0 °F 35.2 °F 30.34 in NW 4.0 mph 7.0 mph 86 % 0.00 in 0 W/m2
07:45 38.8 °F 35.3 °F 30.34 in WNW 5.0 mph 8.0 mph 87 % 0.00 in 0 W/m2
07:50 38.8 °F 35.3 °F 30.34 in WNW 6.0 mph 9.0 mph 87 % 0.00 in 0 W/m2
07:55 38.8 °F 35.6 °F 30.34 in WNW 6.0 mph 8.0 mph 88 % 0.00 in 0 W/m2
08:00 38.8 °F 35.6 °F 30.34 in WNW 6.0 mph 10.0 mph 88 % 0.00 in 5 W/m2
08:06 39.0 °F 35.8 °F 30.34 in WNW 7.0 mph 10.0 mph 88 % 0.00 in 5 W/m2
08:11 39.0 °F 35.8 °F 30.34 in West 7.0 mph 11.0 mph 88 % 0.00 in 7 W/m2
08:16 39.2 °F 35.9 °F 30.35 in West 6.0 mph 12.0 mph 88 % 0.00 in 11 W/m2
08:21 39.4 °F 35.8 °F 30.34 in West 6.0 mph 11.0 mph 87 % 0.00 in 14 W/m2
08:26 39.4 °F 35.8 °F 30.34 in West 3.0 mph 5.0 mph 87 % 0.00 in 19 W/m2
08:31 39.4 °F 35.8 °F 30.34 in NW 3.0 mph 6.0 mph 87 % 0.00 in 25 W/m2
08:36 39.6 °F 36.0 °F 30.34 in WSW 3.0 mph 7.0 mph 87 % 0.00 in 30 W/m2
08:41 39.6 °F 36.0 °F 30.34 in West 3.0 mph 7.0 mph 87 % 0.00 in 35 W/m2
08:46 39.4 °F 35.5 °F 30.33 in West 1.0 mph 4.0 mph 86 % 0.00 in 40 W/m2
08:51 39.4 °F 35.8 °F 30.33 in Calm   1.0 mph 87 % 0.00 in 46 W/m2
08:56 39.4 °F 35.8 °F 30.33 in Calm     87 % 0.00 in 53 W/m2
09:01 39.2 °F 35.4 °F 30.33 in Calm   1.0 mph 86 % 0.00 in 53 W/m2
09:06 39.2 °F 35.7 °F 30.33 in Calm   1.0 mph 87 % 0.00 in 53 W/m2
09:11 39.0 °F 35.5 °F 30.32 in Calm     87 % 0.00 in 63 W/m2
09:16 39.2 °F 35.9 °F 30.32 in West 3.0 mph 4.0 mph 88 % 0.00 in 84 W/m2
09:21 39.4 °F 36.1 °F 30.33 in East 1.0 mph 2.0 mph 88 % 0.00 in 104 W/m2
09:26 39.6 °F 36.3 °F 30.33 in Calm     88 % 0.00 in 86 W/m2
09:31 39.7 °F 36.5 °F 30.33 in Calm     88 % 0.00 in 95 W/m2
09:36 39.9 °F 36.7 °F 30.32 in Calm     88 % 0.00 in 102 W/m2
09:41 40.3 °F 36.7 °F 30.32 in Calm   1.0 mph 87 % 0.00 in 144 W/m2
09:46 40.6 °F 37.1 °F 30.32 in ENE 1.0 mph 5.0 mph 87 % 0.00 in 195 W/m2
09:51 41.0 °F 37.1 °F 30.32 in ENE 1.0 mph 3.0 mph 86 % 0.00 in 181 W/m2
09:57 41.4 °F 37.5 °F 30.32 in Calm     86 % 0.00 in 151 W/m2
10:02 41.9 °F 37.4 °F 30.32 in Calm     84 % 0.00 in 111 W/m2
10:07 42.1 °F 37.3 °F 30.31 in ENE 1.0 mph 2.0 mph 83 % 0.00 in 93 W/m2
10:12 42.1 °F 37.0 °F 30.31 in Calm     82 % 0.00 in 102 W/m2
10:17 42.1 °F 37.0 °F 30.31 in Calm     82 % 0.00 in 102 W/m2
10:22 42.1 °F 37.3 °F 30.31 in Calm     83 % 0.00 in 218 W/m2
10:27 42.4 °F 37.6 °F 30.30 in Calm   1.0 mph 83 % 0.00 in 234 W/m2
10:32 42.8 °F 37.7 °F 30.30 in ENE 2.0 mph 4.0 mph 82 % 0.00 in 244 W/m2
10:37 43.2 °F 37.7 °F 30.30 in ESE 1.0 mph 2.0 mph 81 % 0.00 in 264 W/m2
10:42 43.5 °F 38.1 °F 30.30 in Calm   2.0 mph 81 % 0.00 in 285 W/m2
10:47 43.9 °F 37.8 °F 30.30 in ESE 1.0 mph 4.0 mph 79 % 0.00 in 308 W/m2
10:52 44.2 °F 37.8 °F 30.30 in Calm     78 % 0.00 in 141 W/m2
10:57 44.6 °F 37.8 °F 30.30 in WSW 1.0 mph 4.0 mph 77 % 0.00 in 225 W/m2
11:02 44.8 °F 38.0 °F 30.30 in WNW 3.0 mph 6.0 mph 77 % 0.00 in 308 W/m2
11:07 44.8 °F 37.7 °F 30.30 in WNW 5.0 mph 9.0 mph 76 % 0.00 in 348 W/m2
11:12 45.0 °F 37.5 °F 30.30 in West 7.0 mph 10.0 mph 75 % 0.00 in 345 W/m2
11:17 45.3 °F 37.9 °F 30.30 in West 7.0 mph 14.0 mph 75 % 0.00 in 371 W/m2
11:22 45.5 °F 37.7 °F 30.29 in WSW 4.0 mph 7.0 mph 74 % 0.00 in 369 W/m2
11:27 45.9 °F 38.0 °F 30.29 in WNW 4.0 mph 7.0 mph 74 % 0.00 in 388 W/m2
11:32 45.9 °F 37.7 °F 30.28 in WSW 4.0 mph 6.0 mph 73 % 0.00 in 185 W/m2
11:37 45.9 °F 37.7 °F 30.28 in SSW 4.0 mph 6.0 mph 73 % 0.00 in 325 W/m2
11:42 45.7 °F 37.9 °F 30.27 in SW 2.0 mph 6.0 mph 74 % 0.00 in 160 W/m2
11:47 45.9 °F 38.0 °F 30.27 in WSW 2.0 mph 5.0 mph 74 % 0.00 in 186 W/m2
11:52 46.0 °F 38.2 °F 30.27 in WNW 4.0 mph 7.0 mph 74 % 0.00 in 220 W/m2
11:57 46.0 °F 38.2 °F 30.26 in West 4.0 mph 9.0 mph 74 % 0.00 in 179 W/m2
12:02 46.0 °F 37.9 °F 30.27 in WSW 5.0 mph 9.0 mph 73 % 0.00 in 220 W/m2
12:07 45.9 °F 37.3 °F 30.26 in West 10.0 mph 14.0 mph 72 % 0.00 in 260 W/m2
12:12 45.9 °F 37.3 °F 30.26 in West 5.0 mph 10.0 mph 72 % 0.00 in 179 W/m2
12:17 45.9 °F 37.3 °F 30.26 in WSW 8.0 mph 15.0 mph 72 % 0.00 in 156 W/m2
12:22 45.5 °F 36.6 °F 30.25 in SW 7.0 mph 12.0 mph 71 % 0.00 in 146 W/m2
12:27 45.3 °F 36.8 °F 30.25 in WSW 6.0 mph 13.0 mph 72 % 0.00 in 137 W/m2
12:32 45.0 °F 36.1 °F 30.25 in West 8.0 mph 12.0 mph 71 % 0.00 in 132 W/m2
12:37 44.8 °F 36.3 °F 30.25 in West 6.0 mph 8.0 mph 72 % 0.00 in 123 W/m2
12:42 44.8 °F 36.7 °F 30.25 in WNW 5.0 mph 9.0 mph 73 % 0.00 in 121 W/m2
12:47 44.8 °F 36.7 °F 30.24 in WNW 6.0 mph 11.0 mph 73 % 0.00 in 116 W/m2
12:53 44.8 °F 36.7 °F 30.24 in West 4.0 mph 8.0 mph 73 % 0.00 in 120 W/m2
12:57 44.6 °F 36.5 °F 30.24 in SW 7.0 mph 10.0 mph 73 % 0.00 in 132 W/m2
13:02 44.4 °F 36.6 °F 30.24 in WSW 6.0 mph 9.0 mph 74 % 0.00 in 142 W/m2
13:08 44.4 °F 36.3 °F 30.24 in West 4.0 mph 7.0 mph 73 % 0.00 in 148 W/m2
13:13 44.4 °F 36.6 °F 30.23 in WSW 4.0 mph 11.0 mph 74 % 0.00 in 151 W/m2
13:18 44.4 °F 36.6 °F 30.23 in WSW 5.0 mph 7.0 mph 74 % 0.00 in 146 W/m2
13:23 44.4 °F 36.6 °F 30.22 in WSW 7.0 mph 11.0 mph 74 % 0.00 in 137 W/m2
13:28 44.2 °F 36.5 °F 30.22 in WSW 8.0 mph 11.0 mph 74 % 0.00 in 130 W/m2
13:33 44.2 °F 36.8 °F 30.21 in WSW 8.0 mph 14.0 mph 75 % 0.00 in 130 W/m2
13:38 44.1 °F 36.3 °F 30.21 in WSW 10.0 mph 16.0 mph 74 % 0.00 in 125 W/m2
13:43 44.2 °F 36.8 °F 30.20 in WSW 8.0 mph 13.0 mph 75 % 0.00 in 146 W/m2
13:48 44.2 °F 36.8 °F 30.20 in SW 6.0 mph 12.0 mph 75 % 0.00 in 139 W/m2
13:53 44.2 °F 36.8 °F 30.20 in SW 11.0 mph 15.0 mph 75 % 0.00 in 128 W/m2
13:58 44.1 °F 36.3 °F 30.20 in WSW 12.0 mph 16.0 mph 74 % 0.00 in 135 W/m2
14:03 44.1 °F 36.3 °F 30.19 in WSW 9.0 mph 15.0 mph 74 % 0.00 in 127 W/m2
14:08 44.1 °F 36.0 °F 30.19 in WSW 9.0 mph 14.0 mph 73 % 0.00 in 125 W/m2
14:13 44.1 °F 36.0 °F 30.19 in WSW 9.0 mph 13.0 mph 73 % 0.00 in 113 W/m2
14:18 44.1 °F 36.0 °F 30.19 in WSW 11.0 mph 15.0 mph 73 % 0.00 in 116 W/m2
14:23 44.1 °F 36.0 °F 30.19 in WSW 10.0 mph 15.0 mph 73 % 0.00 in 121 W/m2
14:28 44.1 °F 35.6 °F 30.18 in West 11.0 mph 16.0 mph 72 % 0.00 in 105 W/m2
14:33 44.1 °F 36.0 °F 30.18 in WSW 9.0 mph 13.0 mph 73 % 0.00 in 91 W/m2
14:38 43.9 °F 35.8 °F 30.18 in WSW 10.0 mph 13.0 mph 73 % 0.00 in 76 W/m2
14:43 43.9 °F 35.8 °F 30.19 in West 10.0 mph 15.0 mph 73 % 0.00 in 56 W/m2
14:48 43.9 °F 35.8 °F 30.18 in WSW 10.0 mph 15.0 mph 73 % 0.00 in 62 W/m2
14:53 43.9 °F 35.8 °F 30.17 in WSW 7.0 mph 9.0 mph 73 % 0.00 in 49 W/m2
14:58 43.9 °F 35.8 °F 30.17 in SW 5.0 mph 9.0 mph 73 % 0.00 in 53 W/m2
15:03 43.9 °F 35.8 °F 30.17 in SW 6.0 mph 9.0 mph 73 % 0.00 in 47 W/m2
15:08 43.7 °F 35.6 °F 30.17 in West 8.0 mph 13.0 mph 73 % 0.00 in 40 W/m2
15:13 43.5 °F 35.1 °F 30.16 in West 11.0 mph 18.0 mph 72 % 0.00 in 28 W/m2
15:18 43.5 °F 35.1 °F 30.16 in WSW 10.0 mph 13.0 mph 72 % 0.00 in 28 W/m2
15:23 43.5 °F 35.4 °F 30.16 in WSW 7.0 mph 11.0 mph 73 % 0.00 in 37 W/m2
15:28 43.5 °F 35.8 °F 30.15 in WSW 8.0 mph 11.0 mph 74 % 0.00 in 40 W/m2
15:33 43.3 °F 35.6 °F 30.15 in WSW 8.0 mph 12.0 mph 74 % 0.00 in 44 W/m2
15:38 43.3 °F 35.3 °F 30.14 in WSW 8.0 mph 12.0 mph 73 % 0.00 in 33 W/m2
15:43 43.3 °F 35.3 °F 30.14 in WSW 5.0 mph 8.0 mph 73 % 0.00 in 28 W/m2
15:48 43.2 °F 35.4 °F 30.13 in SW 7.0 mph 11.0 mph 74 % 0.00 in 30 W/m2
15:53 43.2 °F 35.4 °F 30.13 in WSW 7.0 mph 11.0 mph 74 % 0.00 in 30 W/m2
15:58 43.2 °F 35.4 °F 30.12 in WSW 3.0 mph 6.0 mph 74 % 0.00 in 26 W/m2
16:04 43.0 °F 35.3 °F 30.12 in SW 5.0 mph 10.0 mph 74 % 0.00 in 25 W/m2
16:09 43.0 °F 35.6 °F 30.12 in SW 3.0 mph 8.0 mph 75 % 0.00 in 21 W/m2
16:14 43.0 °F 35.6 °F 30.11 in SW 4.0 mph 9.0 mph 75 % 0.00 in 18 W/m2
16:19 42.8 °F 35.4 °F 30.11 in SSW 4.0 mph 7.0 mph 75 % 0.00 in 14 W/m2
16:24 42.6 °F 35.2 °F 30.10 in South 6.0 mph 9.0 mph 75 % 0.00 in 11 W/m2
16:29 42.6 °F 35.2 °F 30.10 in SSW 4.0 mph 8.0 mph 75 % 0.00 in 9 W/m2
16:34 42.6 °F 35.6 °F 30.10 in SW 4.0 mph 8.0 mph 76 % 0.00 in 7 W/m2
16:39 42.4 °F 35.4 °F 30.09 in SW 6.0 mph 10.0 mph 76 % 0.00 in 5 W/m2
16:44 42.4 °F 35.4 °F 30.09 in SSW 8.0 mph 12.0 mph 76 % 0.00 in 0 W/m2
16:49 42.3 °F 35.2 °F 30.09 in SW 6.0 mph 11.0 mph 76 % 0.00 in 0 W/m2
16:54 42.3 °F 35.2 °F 30.08 in SW 8.0 mph 13.0 mph 76 % 0.00 in 0 W/m2
16:59 42.3 °F 35.2 °F 30.08 in SW 9.0 mph 14.0 mph 76 % 0.00 in 0 W/m2
17:04 42.1 °F 35.4 °F 30.08 in SW 9.0 mph 13.0 mph 77 % 0.00 in 0 W/m2
17:09 42.1 °F 35.4 °F 30.08 in SW 8.0 mph 13.0 mph 77 % 0.00 in 0 W/m2
17:14 42.1 °F 35.4 °F 30.07 in SW 7.0 mph 11.0 mph 77 % 0.00 in 0 W/m2
17:19 42.1 °F 35.4 °F 30.06 in SW 8.0 mph 12.0 mph 77 % 0.00 in 0 W/m2
17:24 42.1 °F 35.4 °F 30.06 in SW 9.0 mph 12.0 mph 77 % 0.00 in 0 W/m2
17:29 41.9 °F 35.2 °F 30.06 in SW 11.0 mph 18.0 mph 77 % 0.00 in 0 W/m2
17:34 42.1 °F 35.1 °F 30.06 in SW 8.0 mph 13.0 mph 76 % 0.00 in 0 W/m2
17:39 41.9 °F 35.2 °F 30.05 in SW 8.0 mph 12.0 mph 77 % 0.00 in 0 W/m2
17:44 41.9 °F 34.9 °F 30.05 in WSW 9.0 mph 14.0 mph 76 % 0.00 in 0 W/m2
17:50 41.7 °F 35.0 °F 30.05 in SW 10.0 mph 16.0 mph 77 % 0.00 in 0 W/m2
17:55 41.7 °F 34.7 °F 30.05 in SW 12.0 mph 21.0 mph 76 % 0.00 in 0 W/m2
18:00 41.7 °F 35.0 °F 30.04 in SW 11.0 mph 19.0 mph 77 % 0.00 in 0 W/m2
18:05 41.7 °F 35.0 °F 30.03 in WSW 11.0 mph 19.0 mph 77 % 0.00 in 0 W/m2
18:10 41.7 °F 35.0 °F 30.04 in WSW 11.0 mph 18.0 mph 77 % 0.00 in 0 W/m2
18:15 41.5 °F 34.9 °F 30.04 in WSW 11.0 mph 16.0 mph 77 % 0.00 in 0 W/m2
18:20 41.5 °F 34.9 °F 30.04 in WSW 11.0 mph 16.0 mph 77 % 0.00 in 0 W/m2
18:25 41.5 °F 34.9 °F 30.03 in WSW 11.0 mph 16.0 mph 77 % 0.00 in 0 W/m2
18:30 41.5 °F 34.9 °F 30.03 in WSW 10.0 mph 14.0 mph 77 % 0.00 in 0 W/m2
18:35 41.5 °F 34.9 °F 30.03 in WSW 10.0 mph 13.0 mph 77 % 0.00 in 0 W/m2
18:40 41.5 °F 34.9 °F 30.03 in WSW 9.0 mph 13.0 mph 77 % 0.00 in 0 W/m2
18:45 41.5 °F 34.9 °F 30.03 in SW 8.0 mph 13.0 mph 77 % 0.00 in 0 W/m2
18:50 41.5 °F 34.9 °F 30.03 in SW 7.0 mph 9.0 mph 77 % 0.00 in 0 W/m2
18:55 41.5 °F 34.5 °F 30.02 in WSW 6.0 mph 8.0 mph 76 % 0.00 in 0 W/m2
19:00 41.5 °F 34.5 °F 30.02 in WSW 7.0 mph 9.0 mph 76 % 0.00 in 0 W/m2
19:05 41.5 °F 34.5 °F 30.01 in WSW 5.0 mph 9.0 mph 76 % 0.00 in 0 W/m2
19:10 41.7 °F 34.7 °F 30.01 in SW 4.0 mph 8.0 mph 76 % 0.00 in 0 W/m2
19:15 41.7 °F 34.7 °F 30.01 in SSW 3.0 mph 7.0 mph 76 % 0.00 in 0 W/m2
19:20 41.7 °F 34.7 °F 30.00 in SW 5.0 mph 8.0 mph 76 % 0.00 in 0 W/m2
19:25 41.9 °F 34.9 °F 30.00 in South 5.0 mph 10.0 mph 76 % 0.00 in 0 W/m2
19:30 41.7 °F 34.7 °F 29.99 in South 4.0 mph 7.0 mph 76 % 0.00 in 0 W/m2
19:35 41.7 °F 34.7 °F 29.99 in SSE 3.0 mph 6.0 mph 76 % 0.00 in 0 W/m2
19:37 41.7 °F 34.7 °F 29.99 in SE 3.0 mph 6.0 mph 76 % 0.00 in 0 W/m2
19:42 41.7 °F 35.0 °F 29.99 in SSE 5.0 mph 9.0 mph 77 % 0.00 in 0 W/m2
19:47 41.5 °F 34.9 °F 29.98 in SE 6.0 mph 9.0 mph 77 % 0.00 in 0 W/m2
19:52 41.5 °F 35.2 °F 29.97 in SSE 6.0 mph 12.0 mph 78 % 0.00 in 0 W/m2
19:57 41.5 °F 35.2 °F 29.97 in SE 7.0 mph 11.0 mph 78 % 0.00 in 0 W/m2
20:02 41.4 °F 35.3 °F 29.97 in SSE 6.0 mph 10.0 mph 79 % 0.00 in 0 W/m2
20:07 41.4 °F 35.3 °F 29.97 in SSE 5.0 mph 8.0 mph 79 % 0.00 in 0 W/m2
20:12 41.4 °F 35.3 °F 29.96 in SE 7.0 mph 10.0 mph 79 % 0.00 in 0 W/m2
20:17 41.2 °F 35.5 °F 29.96 in SE 4.0 mph 9.0 mph 80 % 0.00 in 0 W/m2
20:22 41.2 °F 35.5 °F 29.96 in SSE 5.0 mph 8.0 mph 80 % 0.00 in 0 W/m2
20:27 41.2 °F 35.8 °F 29.95 in SW 1.0 mph 5.0 mph 81 % 0.00 in 0 W/m2
20:32 41.2 °F 35.8 °F 29.94 in SW 2.0 mph 9.0 mph 81 % 0.00 in 0 W/m2
20:37 41.0 °F 35.6 °F 29.94 in SW 6.0 mph 9.0 mph 81 % 0.00 in 0 W/m2
20:42 41.0 °F 35.6 °F 29.93 in SSW 9.0 mph 14.0 mph 81 % 0.00 in 0 W/m2
20:47 40.8 °F 35.7 °F 29.93 in SW 10.0 mph 15.0 mph 82 % 0.00 in 0 W/m2
20:52 40.8 °F 35.7 °F 29.93 in SW 11.0 mph 16.0 mph 82 % 0.00 in 0 W/m2
20:57 40.8 °F 35.7 °F 29.92 in SSW 10.0 mph 16.0 mph 82 % 0.00 in 0 W/m2
21:02 40.8 °F 35.7 °F 29.92 in SW 11.0 mph 16.0 mph 82 % 0.00 in 0 W/m2
21:07 40.8 °F 35.7 °F 29.91 in SSW 11.0 mph 14.0 mph 82 % 0.00 in 0 W/m2
21:12 40.6 °F 35.6 °F 29.91 in SSW 8.0 mph 12.0 mph 82 % 0.00 in 0 W/m2
21:17 40.6 °F 35.9 °F 29.90 in SSW 7.0 mph 11.0 mph 83 % 0.00 in 0 W/m2
21:22 40.5 °F 35.7 °F 29.90 in SSW 6.0 mph 11.0 mph 83 % 0.00 in 0 W/m2
21:28 40.5 °F 35.7 °F 29.89 in SSW 8.0 mph 15.0 mph 83 % 0.00 in 0 W/m2
21:33 40.3 °F 35.8 °F 29.90 in SSW 7.0 mph 13.0 mph 84 % 0.00 in 0 W/m2
21:38 40.3 °F 35.8 °F 29.89 in SSW 5.0 mph 10.0 mph 84 % 0.00 in 0 W/m2
21:43 40.3 °F 35.8 °F 29.88 in SSW 4.0 mph 8.0 mph 84 % 0.00 in 0 W/m2
21:48 40.3 °F 36.1 °F 29.88 in SSE 2.0 mph 7.0 mph 85 % 0.00 in 0 W/m2
21:53 40.3 °F 36.4 °F 29.87 in SSW 4.0 mph 7.0 mph 86 % 0.00 in 0 W/m2
21:58 40.3 °F 36.4 °F 29.87 in South 3.0 mph 8.0 mph 86 % 0.00 in 0 W/m2
22:06 40.3 °F 36.7 °F 29.87 in SSW 3.0 mph 5.0 mph 87 % 0.00 in 0 W/m2
22:11 40.3 °F 36.7 °F 29.86 in South 5.0 mph 11.0 mph 87 % 0.00 in 0 W/m2
22:16 40.3 °F 36.7 °F 29.86 in SSW 4.0 mph 8.0 mph 87 % 0.00 in 0 W/m2
22:21 40.3 °F 37.0 °F 29.85 in South 7.0 mph 10.0 mph 88 % 0.00 in 0 W/m2
22:26 40.3 °F 37.0 °F 29.85 in SSW 6.0 mph 10.0 mph 88 % 0.00 in 0 W/m2
22:31 40.3 °F 37.0 °F 29.84 in SSW 6.0 mph 10.0 mph 88 % 0.00 in 0 W/m2
22:36 40.3 °F 37.3 °F 29.84 in South 5.0 mph 7.0 mph 89 % 0.00 in 0 W/m2
22:41 40.3 °F 37.3 °F 29.84 in SSW 7.0 mph 10.0 mph 89 % 0.00 in 0 W/m2
22:46 40.1 °F 37.4 °F 29.83 in SSW 6.0 mph 9.0 mph 90 % 0.00 in 0 W/m2
22:51 39.9 °F 37.2 °F 29.83 in SSW 5.0 mph 8.0 mph 90 % 0.00 in 0 W/m2
22:56 39.9 °F 37.5 °F 29.82 in South 6.0 mph 10.0 mph 91 % 0.00 in 0 W/m2
23:01 39.7 °F 37.3 °F 29.81 in SSW 6.0 mph 10.0 mph 91 % 0.00 in 0 W/m2
23:06 39.7 °F 37.6 °F 29.81 in SSW 8.0 mph 13.0 mph 92 % 0.00 in 0 W/m2
23:11 39.7 °F 37.6 °F 29.79 in SSW 5.0 mph 8.0 mph 92 % 0.00 in 0 W/m2
23:16 39.7 °F 37.6 °F 29.79 in SSW 3.0 mph 8.0 mph 92 % 0.00 in 0 W/m2
23:21 39.6 °F 37.4 °F 29.78 in SSW 7.0 mph 11.0 mph 92 % 0.00 in 0 W/m2
23:26 39.6 °F 37.7 °F 29.78 in SSW 3.0 mph 7.0 mph 93 % 0.00 in 0 W/m2
23:31 39.6 °F 37.7 °F 29.78 in WSW 3.0 mph 5.0 mph 93 % 0.00 in 0 W/m2
23:36 39.6 °F 37.7 °F 29.77 in SSW 4.0 mph 7.0 mph 93 % 0.00 in 0 W/m2
23:41 39.6 °F 37.7 °F 29.76 in SSW 5.0 mph 10.0 mph 93 % 0.00 in 0 W/m2
23:46 39.6 °F 37.7 °F 29.77 in SSW 7.0 mph 10.0 mph 93 % 0.00 in 0 W/m2
23:51 39.6 °F 37.7 °F 29.76 in SW 6.0 mph 10.0 mph 93 % 0.00 in 0 W/m2
23:56 39.6 °F 37.7 °F 29.76 in SSW 6.0 mph 12.0 mph 93 % 0.00 in 0 W/m2
Delerius-Weather
Compliments of Weather Underground - 2.25 mb

Data updates at regular intervals.